Elkins-Randolph Co-Jennings Randolph Field Elkins US
ICAO: KEKN
IATA: EKN
Category: Medium
Scheduled Services: No

Elevation: 1987 ft
TransAlt. 18000 ft.

Airport Communications:
CLARKSBURG APP/DEP:121.15
ASOS:119.275
CTAF:123.6
RDO:122.2

KEKN Zoom In..

Runways:

(A) RW 05 length 4501 ft width 140 ft
---- / hdg 46

(B) RW 14 length 4544 ft width 140 ft
---- / hdg 136

(C) RW 23 length 4501 ft width 140 ft
---- / hdg 226

(D) RW 32 length 4544 ft width 140 ft
---- / hdg 316

Location; KEKN
Day. 20 / Time. 16.51 Zulu
* Altimeter: 30.15
* Temperature: 24° c. 75.2°f.
* Wind from: 250° Speed 09 kn with Gusts up to 15 kn.
Dewpoint: 17° c.
Visibility: 10 Statute Miles.
Clouds: Few 2700 ft.
Clouds: Scattered 3400 ft.
Clouds: Broken 5500 ft.

KEKN 201651Z AUTO 25009G15KT 230V300 10SM FEW027 SCT034 BKN055 24/17 A3015 RMK AO2 SLP200 T02440167 TSNO


Wind From 250°
Speed 09 kn.

 
 
jpsmedia.com for Web Design SOUNDCLOUD worldairports.se 2018   terms of use